^^
Saratoga-Weather Station Historical Data
Daily Summary for January 28, 2020 Units:  English    Metric   Both
Daily Weekly Monthly Yearly Custom
  High: Low: Average:
Temperature: 70.5 °F 55 °F 64.4 °F
Dew Point: 60.6 °F 49.5 °F 55.4 °F
Humidity: 93% 51% 74%
Wind Speed: 12.1mph 0mph 2mph
Wind Gust: 16mph - -
Wind- - WSW
Pressure: 29.7 in 29.6 in -
Precipitation: 0.21 in    
Historical Graphs
 
 
Tabular Data for January 28, 2020
Time Temperature Dew Point Pressure Wind Wind Speed Wind Gust Humidity Rainfall Rate (Hourly) solar
00:02 69.4 °F 54.9 °F 29.7 in Calm   2 mph 60% 0 in 0 W/m2
00:07 69.6 °F 54.7 °F 29.7 in SSW 0.9 mph 5 mph 59% 0 in 0 W/m2
00:12 69.6 °F 55 °F 29.7 in SSW 2 mph 2 mph 60% 0 in 0 W/m2
00:17 69.4 °F 55.9 °F 29.7 in Calm   4 mph 62% 0 in 0 W/m2
00:22 69.1 °F 55.6 °F 29.7 in ENE 2 mph 2 mph 62% 0 in 0 W/m2
00:27 68.5 °F 55 °F 29.7 in Calm   3 mph 62% 0 in 0 W/m2
00:32 68.4 °F 55.2 °F 29.7 in East 2.9 mph 6 mph 63% 0 in 0 W/m2
00:37 68.5 °F 55 °F 29.7 in Calm   1 mph 62% 0 in 0 W/m2
00:43 68.5 °F 54.5 °F 29.7 in NE 2.9 mph 4 mph 61% 0 in 0 W/m2
00:48 68.7 °F 55.2 °F 29.7 in Calm     62% 0 in 0 W/m2
00:53 68.7 °F 56.5 °F 29.7 in NNW 0.9 mph 4 mph 65% 0 in 0 W/m2
00:58 68.4 °F 57.7 °F 29.7 in West 2.9 mph 3 mph 69% 0 in 0 W/m2
01:03 67.6 °F 56.7 °F 29.7 in West 4 mph 9 mph 68% 0 in 0 W/m2
01:08 67.6 °F 57 °F 29.7 in WNW 6.9 mph 12 mph 69% 0 in 0 W/m2
01:13 66.9 °F 57.2 °F 29.7 in West 6.9 mph 12 mph 71% 0 in 0 W/m2
01:18 66 °F 58.6 °F 29.7 in WNW 4.9 mph 10 mph 77% 0 in 0 W/m2
01:23 65.3 °F 59 °F 29.7 in WSW 4 mph 13 mph 80% 0 in 0 W/m2
01:28 64.8 °F 59.2 °F 29.7 in West 2.9 mph 6 mph 82% 0 in 0 W/m2
01:33 64.6 °F 59.4 °F 29.7 in SW 2 mph 8 mph 83% 0 in 0 W/m2
01:38 64.2 °F 59.4 °F 29.7 in West 4 mph 7 mph 84% 0 in 0 W/m2
01:43 64 °F 59.4 °F 29.7 in West 4 mph 6 mph 85% 0 in 0 W/m2
01:48 63.9 °F 59.5 °F 29.7 in West 2.9 mph 4 mph 86% 0 in 0 W/m2
01:53 63.9 °F 59.5 °F 29.7 in WNW 0.9 mph 6 mph 86% 0 in 0 W/m2
01:58 63.9 °F 59.5 °F 29.7 in West 0.9 mph 3 mph 86% 0 in 0 W/m2
02:03 63.9 °F 59.5 °F 29.7 in Calm   6 mph 86% 0 in 0 W/m2
02:08 63.9 °F 59.9 °F 29.7 in North 0.9 mph 1 mph 87% 0.01 in 0 W/m2
02:13 63.9 °F 59.9 °F 29.7 in WNW 0.9 mph 2 mph 87% 0.01 in 0 W/m2
02:18 64 °F 60.1 °F 29.7 in West 2 mph 4 mph 87% 0.01 in 0 W/m2
02:23 64 °F 60.1 °F 29.7 in Calm   2 mph 87% 0.02 in 0 W/m2
02:28 64 °F 60.1 °F 29.7 in North 2 mph 3 mph 87% 0.02 in 0 W/m2
02:33 64 °F 60.1 °F 29.7 in Calm   1 mph 87% 0.02 in 0 W/m2
02:38 64 °F 60.1 °F 29.7 in West 2.9 mph 6 mph 87% 0.02 in 0 W/m2
02:43 64.2 °F 60.3 °F 29.7 in ENE 0.9 mph 2 mph 87% 0.02 in 0 W/m2
02:48 64.2 °F 60.3 °F 29.7 in NW 0.9 mph 2 mph 87% 0.02 in 0 W/m2
02:53 64.2 °F 60.3 °F 29.7 in North 0.9 mph 3 mph 87% 0.02 in 0 W/m2
02:58 64.2 °F 60.3 °F 29.7 in NNW 2.9 mph 4 mph 87% 0.02 in 0 W/m2
03:03 64.2 °F 60.3 °F 29.7 in WNW 0.9 mph 4 mph 87% 0.02 in 0 W/m2
03:08 64.2 °F 60.3 °F 29.7 in WSW 2 mph 6 mph 87% 0.01 in 0 W/m2
03:13 64.2 °F 60.3 °F 29.7 in NNW 2 mph 2 mph 87% 0.01 in 0 W/m2
03:18 64.2 °F 60.3 °F 29.7 in WSW 0.9 mph 2 mph 87% 0.01 in 0 W/m2
03:23 64.2 °F 60.3 °F 29.7 in NW 2.9 mph 4 mph 87% 0 in 0 W/m2
03:28 64.2 °F 60.6 °F 29.7 in West 4 mph 4 mph 88% 0 in 0 W/m2
03:33 64.2 °F 60.3 °F 29.7 in West 0.9 mph 7 mph 87% 0 in 0 W/m2
03:38 64.4 °F 60.4 °F 29.7 in WSW 2 mph 3 mph 87% 0 in 0 W/m2
03:43 64.2 °F 60.3 °F 29.7 in WNW 2.9 mph 6 mph 87% 0 in 0 W/m2
03:48 64.2 °F 60.3 °F 29.7 in West 4 mph 5 mph 87% 0 in 0 W/m2
03:53 64.4 °F 60.4 °F 29.7 in NW 0.9 mph 3 mph 87% 0 in 0 W/m2
03:58 64.2 °F 60.3 °F 29.7 in WSW 2 mph 6 mph 87% 0 in 0 W/m2
04:03 64.2 °F 60.3 °F 29.7 in WNW 0.9 mph 2 mph 87% 0 in 0 W/m2
04:08 64 °F 60.1 °F 29.7 in Calm   6 mph 87% 0 in 0 W/m2
04:13 64 °F 60.1 °F 29.7 in ENE 0.9 mph 1 mph 87% 0 in 0 W/m2
04:18 63.7 °F 59.7 °F 29.7 in ENE 2 mph 3 mph 87% 0 in 0 W/m2
04:23 63.3 °F 59.7 °F 29.7 in Calm   1 mph 88% 0 in 0 W/m2
04:28 63.1 °F 59.5 °F 29.7 in Calm     88% 0 in 0 W/m2
04:33 62.8 °F 59.2 °F 29.7 in Calm     88% 0 in 0 W/m2
04:38 62.4 °F 59.2 °F 29.7 in Calm     89% 0 in 0 W/m2
04:43 62.2 °F 59.2 °F 29.7 in WSW 0.9 mph 2 mph 90% 0 in 0 W/m2
04:48 62.1 °F 59.2 °F 29.7 in WNW 0.9 mph 2 mph 90% 0 in 0 W/m2
04:53 61.9 °F 59 °F 29.7 in WNW 0.9 mph 2 mph 90% 0 in 0 W/m2
04:58 61.9 °F 59 °F 29.7 in West 0.9 mph 3 mph 90% 0 in 0 W/m2
05:03 61.9 °F 59 °F 29.7 in Calm   2 mph 90% 0 in 0 W/m2
05:08 61.5 °F 58.6 °F 29.7 in Calm   1 mph 90% 0 in 0 W/m2
05:13 61.3 °F 58.6 °F 29.7 in WSW 0.9 mph 1 mph 91% 0 in 0 W/m2
05:18 61.3 °F 58.6 °F 29.7 in West 2.9 mph 7 mph 91% 0 in 0 W/m2
05:23 61.9 °F 59.2 °F 29.7 in WNW 2 mph 4 mph 91% 0 in 0 W/m2
05:28 62.1 °F 59.4 °F 29.7 in West 2 mph 2 mph 91% 0 in 0 W/m2
05:33 62.1 °F 59.2 °F 29.7 in SSW 0.9 mph 4 mph 90% 0 in 0 W/m2
05:38 62.1 °F 59.2 °F 29.7 in Calm   2 mph 90% 0 in 0 W/m2
05:43 61.9 °F 59 °F 29.7 in Calm   1 mph 90% 0 in 0 W/m2
05:48 61.5 °F 58.6 °F 29.7 in Calm     90% 0 in 0 W/m2
05:54 61.3 °F 58.6 °F 29.7 in SSW 0.9 mph 1 mph 91% 0 in 0 W/m2
05:59 61 °F 58.3 °F 29.7 in SSW 0.9 mph 1 mph 91% 0 in 0 W/m2
06:04 60.6 °F 57.9 °F 29.7 in Calm     91% 0 in 0 W/m2
06:09 60.4 °F 57.7 °F 29.7 in Calm     91% 0 in 0 W/m2
06:14 60.3 °F 57.9 °F 29.7 in West 0.9 mph 7 mph 92% 0 in 0 W/m2
06:19 60.4 °F 58.1 °F 29.7 in WSW 2 mph 8 mph 92% 0 in 0 W/m2
06:24 60.4 °F 57.7 °F 29.7 in WSW 2 mph 4 mph 91% 0 in 0 W/m2
06:29 60.4 °F 57.6 °F 29.7 in Calm   1 mph 90% 0 in 0 W/m2
06:34 60.4 °F 57.6 °F 29.7 in Calm   4 mph 90% 0 in 0 W/m2
06:39 60.3 °F 57.4 °F 29.7 in Calm   1 mph 90% 0 in 0 W/m2
06:44 59.9 °F 57 °F 29.7 in Calm     90% 0 in 0 W/m2
06:49 59.5 °F 56.8 °F 29.7 in SSW 0.9 mph 2 mph 91% 0 in 0 W/m2
06:54 59.4 °F 56.7 °F 29.7 in Calm     91% 0 in 5 W/m2
06:59 59.2 °F 56.8 °F 29.7 in Calm   1 mph 92% 0 in 7 W/m2
07:04 59.2 °F 56.8 °F 29.7 in Calm   2 mph 92% 0 in 9 W/m2
07:09 59.2 °F 56.8 °F 29.7 in East 0.9 mph 1 mph 92% 0 in 9 W/m2
07:14 59.2 °F 56.8 °F 29.7 in Calm   3 mph 92% 0 in 11 W/m2
07:19 59.2 °F 56.8 °F 29.7 in Calm   1 mph 92% 0 in 12 W/m2
07:24 59.2 °F 56.8 °F 29.7 in Calm   3 mph 92% 0 in 18 W/m2
07:29 59.2 °F 56.5 °F 29.7 in Calm     91% 0 in 19 W/m2
07:34 59.4 °F 57 °F 29.7 in Calm   2 mph 92% 0 in 26 W/m2
07:39 59.5 °F 57.2 °F 29.7 in West 0.9 mph 1 mph 92% 0 in 39 W/m2
07:45 59.7 °F 57 °F 29.7 in ESE 2.9 mph 6 mph 91% 0 in 54 W/m2
07:50 60.1 °F 57.4 °F 29.7 in ENE 0.9 mph 2 mph 91% 0 in 60 W/m2
07:55 60.4 °F 57.2 °F 29.7 in Calm   6 mph 89% 0 in 65 W/m2
08:00 60.6 °F 57 °F 29.7 in North 0.9 mph 1 mph 88% 0 in 70 W/m2
08:05 60.8 °F 57.2 °F 29.7 in NW 0.9 mph 2 mph 88% 0 in 49 W/m2
08:10 61 °F 57 °F 29.7 in Calm     87% 0 in 49 W/m2
08:15 61 °F 56.8 °F 29.7 in WNW 0.9 mph 2 mph 86% 0 in 58 W/m2
08:20 61.2 °F 57 °F 29.7 in SSW 0.9 mph 2 mph 86% 0 in 81 W/m2
08:25 61.3 °F 56.8 °F 29.7 in Calm   2 mph 85% 0 in 165 W/m2
08:30 61.7 °F 57.2 °F 29.7 in NW 0.9 mph 2 mph 85% 0 in 114 W/m2
08:35 61.9 °F 57 °F 29.7 in Calm   1 mph 84% 0 in 84 W/m2
08:40 62.1 °F 56.8 °F 29.7 in West 0.9 mph 3 mph 83% 0 in 65 W/m2
08:45 62.2 °F 56.7 °F 29.7 in NNW 0.9 mph 7 mph 82% 0 in 114 W/m2
08:50 62.2 °F 56.7 °F 29.7 in North 0.9 mph 2 mph 82% 0 in 255 W/m2
08:55 62.8 °F 57.2 °F 29.7 in NW 0.9 mph 7 mph 82% 0 in 262 W/m2
09:00 63 °F 56.7 °F 29.7 in WSW 2 mph 4 mph 80% 0 in 116 W/m2
09:05 63 °F 56.3 °F 29.7 in NW 2.9 mph 5 mph 79% 0 in 105 W/m2
09:10 63 °F 56.3 °F 29.7 in Calm   1 mph 79% 0 in 72 W/m2
09:16 63 °F 56.3 °F 29.7 in WNW 2.9 mph 3 mph 79% 0 in 60 W/m2
09:21 63 °F 56.3 °F 29.7 in NNW 2 mph 4 mph 79% 0 in 135 W/m2
09:26 63.1 °F 56.1 °F 29.7 in West 2 mph 3 mph 78% 0 in 88 W/m2
09:31 63.1 °F 56.1 °F 29.6 in Calm   1 mph 78% 0 in 81 W/m2
09:36 63.1 °F 55.8 °F 29.6 in Calm   3 mph 77% 0 in 176 W/m2
09:41 63.3 °F 55.9 °F 29.6 in Calm     77% 0 in 105 W/m2
09:46 63.9 °F 56.1 °F 29.7 in West 2.9 mph 3 mph 76% 0 in 88 W/m2
09:51 64 °F 56.3 °F 29.7 in WNW 2 mph 2 mph 76% 0 in 137 W/m2
09:56 64.2 °F 56.5 °F 29.7 in East 2 mph 3 mph 76% 0 in 149 W/m2
10:01 64.4 °F 56.3 °F 29.7 in NW 2.9 mph 3 mph 75% 0 in 130 W/m2
10:06 64.2 °F 56.5 °F 29.7 in NE 2 mph 2 mph 76% 0 in 97 W/m2
10:11 64.2 °F 56.5 °F 29.7 in ESE 2 mph 3 mph 76% 0 in 225 W/m2
10:16 64.2 °F 57.2 °F 29.6 in Calm   3 mph 78% 0 in 197 W/m2
10:21 64.2 °F 56.8 °F 29.6 in WNW 2.9 mph 3 mph 77% 0 in 134 W/m2
10:26 64.4 °F 57.4 °F 29.6 in NNW 0.9 mph 2 mph 78% 0 in 606 W/m2
10:31 64.8 °F 58.1 °F 29.6 in NW 2 mph 6 mph 79% 0 in 606 W/m2
10:36 65.1 °F 58.5 °F 29.6 in WNW 4 mph 5 mph 79% 0 in 708 W/m2
10:41 65.7 °F 58.6 °F 29.6 in West 0.9 mph 4 mph 78% 0 in 434 W/m2
10:46 65.8 °F 58.1 °F 29.6 in West 6 mph 6 mph 76% 0 in 121 W/m2
10:51 65.5 °F 57.4 °F 29.6 in WNW 2.9 mph 4 mph 75% 0 in 137 W/m2
10:56 65.5 °F 57.4 °F 29.6 in North 0.9 mph 1 mph 75% 0 in 195 W/m2
11:01 65.5 °F 57.4 °F 29.6 in East 6.9 mph 8 mph 75% 0 in 153 W/m2
11:06 65.5 °F 56.3 °F 29.6 in NW 4.9 mph 6 mph 72% 0 in 255 W/m2
11:11 65.5 °F 55.4 °F 29.6 in West 0.9 mph 8 mph 70% 0 in 225 W/m2
11:16 66 °F 55.9 °F 29.6 in West 2.9 mph 6 mph 70% 0 in 248 W/m2
11:21 66.6 °F 56.5 °F 29.6 in West 8.1 mph 8 mph 70% 0 in 229 W/m2
11:26 66.7 °F 56.7 °F 29.6 in NNW 2 mph 3 mph 70% 0 in 195 W/m2
11:31 66.7 °F 55.8 °F 29.6 in NW 4.9 mph 5 mph 68% 0 in 188 W/m2
11:36 66.7 °F 55 °F 29.6 in WNW 2 mph 3 mph 66% 0 in 297 W/m2
11:41 67.1 °F 54.9 °F 29.6 in WSW 0.9 mph 3 mph 65% 0 in 366 W/m2
11:46 67.6 °F 55.9 °F 29.6 in WNW 2 mph 3 mph 66% 0 in 631 W/m2
11:51 67.8 °F 55.6 °F 29.6 in North 2 mph 7 mph 65% 0 in 394 W/m2
11:56 68.2 °F 55 °F 29.6 in NW 4 mph 8 mph 63% 0 in 417 W/m2
12:01 67.8 °F 54.3 °F 29.6 in WNW 4 mph 9 mph 62% 0 in 269 W/m2
12:06 67.6 °F 54.7 °F 29.6 in NW 0.9 mph 4 mph 63% 0 in 313 W/m2
12:11 68.2 °F 54.7 °F 29.6 in West 2.9 mph 10 mph 62% 0 in 274 W/m2
12:16 68.2 °F 54.1 °F 29.6 in North 2 mph 7 mph 61% 0 in 380 W/m2
12:21 68.4 °F 54.3 °F 29.6 in NW 0.9 mph 7 mph 61% 0 in 394 W/m2
12:26 68.4 °F 54 °F 29.6 in NNW 2 mph 8 mph 60% 0 in 322 W/m2
12:31 68.4 °F 54 °F 29.6 in NNW 6 mph 7 mph 60% 0 in 315 W/m2
12:36 68.4 °F 54 °F 29.6 in NW 0.9 mph 4 mph 60% 0 in 346 W/m2
12:41 68.4 °F 54 °F 29.6 in NW 0.9 mph 6 mph 60% 0 in 348 W/m2
12:46 68.4 °F 54 °F 29.6 in NNW 2 mph 6 mph 60% 0 in 339 W/m2
12:51 68.4 °F 52.5 °F 29.6 in Calm   7 mph 57% 0 in 352 W/m2
12:56 68.5 °F 52.7 °F 29.6 in WSW 2 mph 4 mph 57% 0 in 387 W/m2
13:01 68.5 °F 52.7 °F 29.6 in NNW 4 mph 7 mph 57% 0 in 359 W/m2
13:06 68.5 °F 52.7 °F 29.6 in West 2 mph 5 mph 57% 0 in 339 W/m2
13:11 68.7 °F 53.4 °F 29.6 in NNW 4 mph 4 mph 58% 0 in 322 W/m2
13:16 68.5 °F 51.8 °F 29.6 in NW 2.9 mph 11 mph 55% 0 in 311 W/m2
13:21 68.4 °F 52 °F 29.6 in South 2 mph 10 mph 56% 0 in 316 W/m2
13:26 68.4 °F 52.5 °F 29.6 in WSW 6 mph 10 mph 57% 0 in 315 W/m2
13:31 68.4 °F 52 °F 29.6 in WSW 6 mph 6 mph 56% 0 in 311 W/m2
13:36 68.4 °F 51.6 °F 29.6 in NW 2.9 mph 5 mph 55% 0 in 301 W/m2
13:41 68.5 °F 51.8 °F 29.6 in NW 0.9 mph 10 mph 55% 0 in 309 W/m2
13:46 68.4 °F 52 °F 29.6 in NW 2 mph 4 mph 56% 0 in 272 W/m2
13:51 68.2 °F 52.3 °F 29.6 in WNW 4 mph 10 mph 57% 0 in 264 W/m2
13:56 67.8 °F 52.5 °F 29.6 in SW 4.9 mph 8 mph 58% 0 in 276 W/m2
14:01 67.8 °F 52.9 °F 29.6 in West 4 mph 4 mph 59% 0 in 276 W/m2
14:06 68.2 °F 53.2 °F 29.6 in WSW 6 mph 8 mph 59% 0 in 253 W/m2
14:11 68 °F 53.1 °F 29.6 in West 2 mph 6 mph 59% 0 in 383 W/m2
14:16 68 °F 53.1 °F 29.6 in SW 2 mph 6 mph 59% 0 in 364 W/m2
14:21 68 °F 52.7 °F 29.6 in West 8.1 mph 8 mph 58% 0 in 350 W/m2
14:26 67.8 °F 51.6 °F 29.6 in WNW 4 mph 5 mph 56% 0 in 359 W/m2
14:31 67.6 °F 51.4 °F 29.6 in North 2.9 mph 15 mph 56% 0 in 410 W/m2
14:36 67.6 °F 51.4 °F 29.6 in WNW 4 mph 7 mph 56% 0 in 390 W/m2
14:41 68 °F 50.7 °F 29.6 in West 12.1 mph 13 mph 54% 0 in 406 W/m2
14:47 67.8 °F 51.6 °F 29.6 in SSW 2 mph 4 mph 56% 0 in 346 W/m2
14:52 68.2 °F 50.9 °F 29.6 in West 10.1 mph 13 mph 54% 0 in 381 W/m2
14:57 68 °F 50.7 °F 29.6 in West 4 mph 6 mph 54% 0 in 360 W/m2
15:02 68.2 °F 51.4 °F 29.6 in WNW 2 mph 12 mph 55% 0 in 489 W/m2
15:07 68.2 °F 51.4 °F 29.6 in West 6 mph 9 mph 55% 0 in 316 W/m2
15:12 68 °F 51.8 °F 29.6 in West 8.9 mph 11 mph 56% 0 in 320 W/m2
15:17 68.2 °F 51.8 °F 29.6 in NNW 4 mph 16 mph 56% 0 in 323 W/m2
15:22 68 °F 51.8 °F 29.6 in West 4 mph 4 mph 56% 0 in 411 W/m2
15:27 68.2 °F 51.8 °F 29.6 in West 4 mph 13 mph 56% 0 in 450 W/m2
15:32 68.2 °F 51.8 °F 29.6 in NW 8.1 mph 11 mph 56% 0 in 315 W/m2
15:37 68.4 °F 52.5 °F 29.6 in West 2.9 mph 6 mph 57% 0 in 357 W/m2
15:42 68.5 °F 52.2 °F 29.6 in West 4 mph 7 mph 56% 0 in 366 W/m2
15:47 68.9 °F 52 °F 29.6 in NW 2 mph 6 mph 55% 0 in 315 W/m2
15:52 69.3 °F 52.9 °F 29.6 in WNW 4.9 mph 5 mph 56% 0 in 490 W/m2
15:57 69.4 °F 52.2 °F 29.6 in NW 0.9 mph 5 mph 54% 0 in 501 W/m2
16:02 69.3 °F 52 °F 29.6 in Calm   3 mph 54% 0 in 353 W/m2
16:08 69.3 °F 52 °F 29.6 in SW 4.9 mph 11 mph 54% 0 in 374 W/m2
16:13 69.3 °F 52.3 °F 29.6 in NW 2.9 mph 7 mph 55% 0 in 348 W/m2
16:18 69.6 °F 52.7 °F 29.6 in NW 2.9 mph 11 mph 55% 0 in 480 W/m2
16:23 69.6 °F 53.2 °F 29.6 in NNW 0.9 mph 3 mph 56% 0 in 338 W/m2
16:28 69.6 °F 51.8 °F 29.6 in WNW 2 mph 13 mph 53% 0 in 295 W/m2
16:33 69.4 °F 52.2 °F 29.6 in NNW 2.9 mph 5 mph 54% 0 in 320 W/m2
16:38 69.4 °F 51.6 °F 29.6 in SE 4 mph 10 mph 53% 0 in 285 W/m2
16:43 69.4 °F 52.2 °F 29.6 in WNW 2 mph 4 mph 54% 0 in 297 W/m2
16:48 69.6 °F 51.8 °F 29.6 in NW 2 mph 8 mph 53% 0 in 318 W/m2
16:53 70 °F 52 °F 29.6 in ENE 0.9 mph 4 mph 53% 0 in 570 W/m2
16:58 70.3 °F 52.3 °F 29.6 in WNW 2 mph 7 mph 53% 0 in 471 W/m2
17:03 70.5 °F 52 °F 29.6 in NW 2 mph 9 mph 52% 0 in 306 W/m2
17:08 70.5 °F 52.5 °F 29.6 in WNW 2.9 mph 6 mph 53% 0 in 171 W/m2
17:13 70.5 °F 52 °F 29.6 in West 2 mph 9 mph 52% 0 in 151 W/m2
17:18 70.2 °F 51.8 °F 29.6 in North 2 mph 3 mph 52% 0 in 146 W/m2
17:23 70.2 °F 51.8 °F 29.6 in NW 2 mph 7 mph 52% 0 in 190 W/m2
17:28 70.2 °F 52.2 °F 29.6 in West 4 mph 4 mph 53% 0 in 165 W/m2
17:33 70.2 °F 51.8 °F 29.6 in NW 4 mph 7 mph 52% 0 in 490 W/m2
17:38 70.3 °F 52.3 °F 29.6 in Calm   8 mph 53% 0 in 148 W/m2
17:43 70.3 °F 51.8 °F 29.6 in NNE 0.9 mph 4 mph 52% 0 in 200 W/m2
17:48 70.2 °F 51.8 °F 29.6 in WNW 4 mph 8 mph 52% 0 in 95 W/m2
17:53 69.8 °F 52 °F 29.6 in ENE 0.9 mph 5 mph 53% 0 in 88 W/m2
17:58 69.6 °F 51.8 °F 29.6 in WNW 2.9 mph 6 mph 53% 0 in 86 W/m2
18:03 69.4 °F 51.6 °F 29.6 in WNW 2.9 mph 4 mph 53% 0 in 111 W/m2
18:08 69.4 °F 52.2 °F 29.6 in NNW 0.9 mph 5 mph 54% 0 in 111 W/m2
18:13 69.4 °F 52.2 °F 29.6 in NW 2 mph 3 mph 54% 0 in 83 W/m2
18:18 69.4 °F 52.2 °F 29.6 in WNW 4 mph 4 mph 54% 0 in 88 W/m2
18:23 69.3 °F 52 °F 29.6 in NW 2 mph 5 mph 54% 0 in 98 W/m2
18:28 69.3 °F 52.3 °F 29.6 in Calm   2 mph 55% 0 in 79 W/m2
18:33 69.3 °F 52 °F 29.6 in West 4 mph 7 mph 54% 0 in 104 W/m2
18:38 69.3 °F 52 °F 29.6 in NW 2.9 mph 4 mph 54% 0 in 47 W/m2
18:43 69.3 °F 52.3 °F 29.6 in WSW 9 mph 9 mph 55% 0 in 39 W/m2
18:48 68.4 °F 49.5 °F 29.6 in WNW 8.1 mph 11 mph 51% 0 in 42 W/m2
18:53 66.9 °F 50.2 °F 29.6 in West 6.9 mph 10 mph 55% 0 in 65 W/m2
18:58 65.8 °F 50.2 °F 29.6 in WSW 6.9 mph 10 mph 57% 0 in 90 W/m2
19:03 64.9 °F 51.1 °F 29.6 in West 6 mph 11 mph 61% 0 in 148 W/m2
19:08 64.2 °F 51.8 °F 29.6 in West 2.9 mph 5 mph 64% 0 in 69 W/m2
19:13 63.9 °F 51.4 °F 29.6 in NW 2.9 mph 11 mph 64% 0 in 70 W/m2
19:18 63.7 °F 52.2 °F 29.6 in NW 2.9 mph 4 mph 66% 0 in 172 W/m2
19:23 63.9 °F 52.3 °F 29.6 in NNW 2 mph 5 mph 66% 0 in 155 W/m2
19:28 64 °F 52.5 °F 29.6 in Calm   1 mph 66% 0 in 132 W/m2
19:33 64.2 °F 52.7 °F 29.6 in NW 2 mph 3 mph 66% 0 in 111 W/m2
19:38 64.4 °F 52.9 °F 29.6 in WNW 0.9 mph 3 mph 66% 0 in 86 W/m2
19:43 64.2 °F 52.7 °F 29.6 in West 2 mph 3 mph 66% 0 in 25 W/m2
19:48 64 °F 52.9 °F 29.6 in West 2 mph 4 mph 67% 0 in 21 W/m2
19:53 63.7 °F 52.9 °F 29.6 in West 0.9 mph 3 mph 68% 0 in 18 W/m2
19:58 63.3 °F 53.1 °F 29.6 in NW 2 mph 2 mph 69% 0 in 18 W/m2
20:03 63 °F 53.1 °F 29.6 in WNW 0.9 mph 2 mph 70% 0 in 16 W/m2
20:08 62.6 °F 53.1 °F 29.6 in Calm   1 mph 71% 0 in 12 W/m2
20:13 62.4 °F 53.2 °F 29.6 in Calm   4 mph 72% 0 in 7 W/m2
20:18 62.2 °F 53.1 °F 29.6 in Calm     72% 0 in 5 W/m2
20:23 61.9 °F 53.1 °F 29.6 in West 0.9 mph 1 mph 73% 0 in 0 W/m2
20:28 61.7 °F 53.2 °F 29.6 in NNW 2.9 mph 4 mph 74% 0 in 0 W/m2
20:34 61.5 °F 53.6 °F 29.6 in Calm   1 mph 75% 0 in 0 W/m2
20:39 61.5 °F 53.6 °F 29.6 in WNW 2 mph 5 mph 75% 0 in 0 W/m2
20:44 61.9 °F 53.8 °F 29.6 in West 4 mph 8 mph 75% 0 in 0 W/m2
20:49 62.1 °F 54.3 °F 29.6 in NNE 2 mph 4 mph 76% 0 in 0 W/m2
20:54 62.1 °F 54.7 °F 29.6 in West 2.9 mph 8 mph 77% 0 in 0 W/m2
20:59 61.3 °F 54.5 °F 29.6 in West 2.9 mph 4 mph 78% 0 in 0 W/m2
21:04 61 °F 54.5 °F 29.6 in West 2 mph 7 mph 79% 0 in 0 W/m2
21:10 60.6 °F 54.1 °F 29.6 in WSW 2 mph 4 mph 79% 0 in 0 W/m2
21:15 60.4 °F 54 °F 29.6 in West 2 mph 5 mph 79% 0 in 0 W/m2
21:20 60.3 °F 54.1 °F 29.6 in West 0.9 mph 2 mph 80% 0 in 0 W/m2
21:25 60.3 °F 54.3 °F 29.6 in Calm   3 mph 81% 0 in 0 W/m2
21:30 60.1 °F 54.5 °F 29.6 in West 0.9 mph 1 mph 82% 0 in 0 W/m2
21:35 59.7 °F 54.5 °F 29.6 in Calm     83% 0 in 0 W/m2
21:40 59.7 °F 54.5 °F 29.6 in Calm     83% 0 in 0 W/m2
21:45 59.5 °F 54.3 °F 29.6 in West 0.9 mph 2 mph 83% 0.02 in 0 W/m2
21:50 59.5 °F 55 °F 29.6 in West 0.9 mph 1 mph 85% 0.05 in 0 W/m2
21:55 59.2 °F 54.7 °F 29.6 in Calm   2 mph 85% 0.07 in 0 W/m2
22:00 58.6 °F 54.5 °F 29.6 in SSE 0.9 mph 1 mph 86% 0.09 in 0 W/m2
22:05 58.5 °F 54.9 °F 29.6 in West 0.9 mph 3 mph 88% 0.12 in 0 W/m2
22:10 58.3 °F 55 °F 29.6 in WSW 2 mph 3 mph 89% 0.13 in 0 W/m2
22:15 57.9 °F 54.7 °F 29.6 in SW 0.9 mph 2 mph 89% 0.16 in 0 W/m2
22:20 57.9 °F 54.7 °F 29.6 in SSW 2 mph 4 mph 89% 0.18 in 0 W/m2
22:25 58.1 °F 54.9 °F 29.6 in ENE 0.9 mph 4 mph 89% 0.18 in 0 W/m2
22:30 58.1 °F 54.9 °F 29.6 in West 0.9 mph 2 mph 89% 0.19 in 0 W/m2
22:35 57.9 °F 54.7 °F 29.6 in WSW 0.9 mph 4 mph 89% 0.2 in 0 W/m2
22:40 57.7 °F 54.5 °F 29.6 in South 0.9 mph 1 mph 89% 0.2 in 0 W/m2
22:45 57.6 °F 54.3 °F 29.6 in West 4 mph 4 mph 89% 0.18 in 0 W/m2
22:50 57.4 °F 54.5 °F 29.6 in Calm   1 mph 90% 0.15 in 0 W/m2
22:55 57 °F 54.1 °F 29.6 in Calm   1 mph 90% 0.13 in 0 W/m2
23:00 56.8 °F 54 °F 29.6 in Calm   1 mph 90% 0.11 in 0 W/m2
23:05 56.8 °F 54.3 °F 29.6 in West 2.9 mph 4 mph 91% 0.08 in 0 W/m2
23:10 56.8 °F 54.3 °F 29.6 in West 0.9 mph 3 mph 91% 0.06 in 0 W/m2
23:15 56.8 °F 54.3 °F 29.6 in Calm   2 mph 91% 0.03 in 0 W/m2
23:20 56.7 °F 54.1 °F 29.6 in Calm   1 mph 91% 0.02 in 0 W/m2
23:25 56.5 °F 54 °F 29.6 in Calm     91% 0.01 in 0 W/m2
23:30 56.1 °F 53.8 °F 29.6 in Calm     92% 0.01 in 0 W/m2
23:35 55.9 °F 53.4 °F 29.6 in Calm     91% 0 in 0 W/m2
23:40 55.6 °F 53.2 °F 29.6 in Calm     92% 0 in 0 W/m2
23:45 55.4 °F 53.1 °F 29.6 in Calm     92% 0 in 0 W/m2
23:50 55.2 °F 53.2 °F 29.6 in Calm     93% 0 in 0 W/m2
23:56 55 °F 53.1 °F 29.6 in Calm   1 mph 93% 0 in 0 W/m2
Juneau County Weather
Compliments of Weather Underground - 4 mb